sensor_id;sensor_type;location;lat;lon;timestamp;pressure;altitude;pressure_sealevel;temperature;humidity
24031;BME280;12240;51.142;22.486;2023-04-15T00:01:14;98528.97;;;8.57;100.00
24031;BME280;12240;51.142;22.486;2023-04-15T00:03:46;98521.84;;;8.58;100.00
24031;BME280;12240;51.142;22.486;2023-04-15T00:06:15;98524.66;;;8.56;100.00
24031;BME280;12240;51.142;22.486;2023-04-15T00:08:43;98529.97;;;8.56;100.00
24031;BME280;12240;51.142;22.486;2023-04-15T00:11:12;98523.31;;;8.52;100.00
24031;BME280;12240;51.142;22.486;2023-04-15T00:13:41;98521.78;;;8.50;100.00
24031;BME280;12240;51.142;22.486;2023-04-15T00:16:09;98524.97;;;8.53;100.00
24031;BME280;12240;51.142;22.486;2023-04-15T00:18:38;98516.66;;;8.48;100.00
24031;BME280;12240;51.142;22.486;2023-04-15T00:21:08;98520.81;;;8.51;100.00
24031;BME280;12240;51.142;22.486;2023-04-15T00:23:36;98530.75;;;8.49;100.00
24031;BME280;12240;51.142;22.486;2023-04-15T00:26:04;98529.75;;;8.50;100.00
24031;BME280;12240;51.142;22.486;2023-04-15T00:28:32;98531.91;;;8.46;100.00
24031;BME280;12240;51.142;22.486;2023-04-15T00:31:00;98524.78;;;8.47;100.00
24031;BME280;12240;51.142;22.486;2023-04-15T00:33:28;98523.94;;;8.46;100.00
24031;BME280;12240;51.142;22.486;2023-04-15T00:35:56;98528.44;;;8.46;100.00
24031;BME280;12240;51.142;22.486;2023-04-15T00:38:24;98529.75;;;8.50;100.00
24031;BME280;12240;51.142;22.486;2023-04-15T00:40:54;98529.25;;;8.46;100.00
24031;BME280;12240;51.142;22.486;2023-04-15T00:43:23;98520.47;;;8.46;100.00
24031;BME280;12240;51.142;22.486;2023-04-15T00:45:53;98524.94;;;8.45;100.00
24031;BME280;12240;51.142;22.486;2023-04-15T00:48:24;98526.09;;;8.43;100.00
24031;BME280;12240;51.142;22.486;2023-04-15T00:50:52;98526.09;;;8.43;100.00
24031;BME280;12240;51.142;22.486;2023-04-15T00:53:20;98524.09;;;8.45;100.00
24031;BME280;12240;51.142;22.486;2023-04-15T00:55:49;98524.25;;;8.43;100.00
24031;BME280;12240;51.142;22.486;2023-04-15T00:58:17;98527.06;;;8.42;100.00
24031;BME280;12240;51.142;22.486;2023-04-15T01:00:46;98528.75;;;8.43;100.00
24031;BME280;12240;51.142;22.486;2023-04-15T01:03:14;98530.72;;;8.41;100.00
24031;BME280;12240;51.142;22.486;2023-04-15T01:05:43;98527.25;;;8.40;100.00
24031;BME280;12240;51.142;22.486;2023-04-15T01:08:11;98529.91;;;8.40;100.00
24031;BME280;12240;51.142;22.486;2023-04-15T01:10:40;98525.72;;;8.38;100.00
24031;BME280;12240;51.142;22.486;2023-04-15T01:13:08;98524.59;;;8.40;100.00
24031;BME280;12240;51.142;22.486;2023-04-15T01:15:36;98519.44;;;8.39;100.00
24031;BME280;12240;51.142;22.486;2023-04-15T01:18:04;98519.59;;;8.37;100.00
24031;BME280;12240;51.142;22.486;2023-04-15T01:20:34;98517.41;;;8.33;100.00
24031;BME280;12240;51.142;22.486;2023-04-15T01:23:03;98524.41;;;8.34;100.00
24031;BME280;12240;51.142;22.486;2023-04-15T01:25:34;98525.72;;;8.38;100.00
24031;BME280;12240;51.142;22.486;2023-04-15T01:28:02;98522.41;;;8.36;100.00
24031;BME280;12240;51.142;22.486;2023-04-15T01:30:35;98519.78;;;8.36;100.00
24031;BME280;12240;51.142;22.486;2023-04-15T01:33:03;98522.41;;;8.36;100.00
24031;BME280;12240;51.142;22.486;2023-04-15T01:35:31;98531.03;;;8.38;100.00
24031;BME280;12240;51.142;22.486;2023-04-15T01:38:05;98524.06;;;8.37;100.00
24031;BME280;12240;51.142;22.486;2023-04-15T01:40:34;98525.06;;;8.36;100.00
24031;BME280;12240;51.142;22.486;2023-04-15T01:43:02;98533.31;;;8.33;100.00
24031;BME280;12240;51.142;22.486;2023-04-15T01:45:30;98527.88;;;8.34;100.00
24031;BME280;12240;51.142;22.486;2023-04-15T01:47:59;98527.72;;;8.36;100.00
24031;BME280;12240;51.142;22.486;2023-04-15T01:50:27;98535.00;;;8.34;100.00
24031;BME280;12240;51.142;22.486;2023-04-15T01:52:55;98536.97;;;8.32;100.00
24031;BME280;12240;51.142;22.486;2023-04-15T01:55:24;98528.69;;;8.35;100.00
24031;BME280;12240;51.142;22.486;2023-04-15T01:57:53;98538.13;;;8.29;100.00
24031;BME280;12240;51.142;22.486;2023-04-15T02:00:21;98530.84;;;8.31;100.00
24031;BME280;12240;51.142;22.486;2023-04-15T02:02:52;98532.00;;;8.29;100.00
24031;BME280;12240;51.142;22.486;2023-04-15T02:05:20;98523.03;;;8.30;100.00
24031;BME280;12240;51.142;22.486;2023-04-15T02:07:48;98527.38;;;8.31;100.00
24031;BME280;12240;51.142;22.486;2023-04-15T02:10:16;98530.84;;;8.31;100.00
24031;BME280;12240;51.142;22.486;2023-04-15T02:12:44;98519.41;;;8.31;100.00
24031;BME280;12240;51.142;22.486;2023-04-15T02:15:12;98519.25;;;8.32;100.00
24031;BME280;12240;51.142;22.486;2023-04-15T02:17:41;98522.72;;;8.33;100.00
24031;BME280;12240;51.142;22.486;2023-04-15T02:20:15;98525.38;;;8.33;100.00
24031;BME280;12240;51.142;22.486;2023-04-15T02:22:43;98530.53;;;8.34;100.00
24031;BME280;12240;51.142;22.486;2023-04-15T02:25:15;98516.44;;;8.34;100.00
24031;BME280;12240;51.142;22.486;2023-04-15T02:27:47;98532.19;;;8.35;100.00
24031;BME280;12240;51.142;22.486;2023-04-15T02:30:16;98528.69;;;8.35;100.00
24031;BME280;12240;51.142;22.486;2023-04-15T02:32:45;98533.03;;;8.36;100.00
24031;BME280;12240;51.142;22.486;2023-04-15T02:35:13;98541.97;;;8.35;100.00
24031;BME280;12240;51.142;22.486;2023-04-15T02:37:42;98538.34;;;8.36;100.00
24031;BME280;12240;51.142;22.486;2023-04-15T02:40:13;98532.03;;;8.37;100.00
24031;BME280;12240;51.142;22.486;2023-04-15T02:42:41;98534.69;;;8.37;100.00
24031;BME280;12240;51.142;22.486;2023-04-15T02:45:13;98528.38;;;8.38;100.00
24031;BME280;12240;51.142;22.486;2023-04-15T02:47:42;98530.22;;;8.37;100.00
24031;BME280;12240;51.142;22.486;2023-04-15T02:50:12;98526.56;;;8.38;100.00
24031;BME280;12240;51.142;22.486;2023-04-15T02:52:42;98517.94;;;8.36;100.00
24031;BME280;12240;51.142;22.486;2023-04-15T02:55:10;98518.75;;;8.37;100.00
24031;BME280;12240;51.142;22.486;2023-04-15T02:57:39;98517.75;;;8.38;100.00
24031;BME280;12240;51.142;22.486;2023-04-15T03:00:10;98520.59;;;8.36;100.00
24031;BME280;12240;51.142;22.486;2023-04-15T03:02:45;98525.59;;;8.39;100.00
24031;BME280;12240;51.142;22.486;2023-04-15T03:05:13;98521.09;;;8.40;100.00
24031;BME280;12240;51.142;22.486;2023-04-15T03:07:48;98511.50;;;8.39;100.00
24031;BME280;12240;51.142;22.486;2023-04-15T03:10:16;98508.00;;;8.38;100.00
24031;BME280;12240;51.142;22.486;2023-04-15T03:12:46;98503.69;;;8.37;100.00
24031;BME280;12240;51.142;22.486;2023-04-15T03:15:18;98503.53;;;8.39;100.00
24031;BME280;12240;51.142;22.486;2023-04-15T03:17:49;98507.31;;;8.36;100.00
24031;BME280;12240;51.142;22.486;2023-04-15T03:20:17;98510.66;;;8.38;100.00
24031;BME280;12240;51.142;22.486;2023-04-15T03:22:48;98517.75;;;8.38;100.00
24031;BME280;12240;51.142;22.486;2023-04-15T03:25:16;98515.94;;;8.38;100.00
24031;BME280;12240;51.142;22.486;2023-04-15T03:27:44;98507.84;;;8.40;100.00
24031;BME280;12240;51.142;22.486;2023-04-15T03:30:13;98512.31;;;8.39;100.00
24031;BME280;12240;51.142;22.486;2023-04-15T03:32:41;98518.44;;;8.40;100.00
24031;BME280;12240;51.142;22.486;2023-04-15T03:35:09;98522.94;;;8.39;100.00
24031;BME280;12240;51.142;22.486;2023-04-15T03:37:37;98519.47;;;8.47;100.00
24031;BME280;12240;51.142;22.486;2023-04-15T03:40:07;98516.97;;;8.45;100.00
24031;BME280;12240;51.142;22.486;2023-04-15T03:42:35;98518.78;;;8.45;100.00
24031;BME280;12240;51.142;22.486;2023-04-15T03:45:04;98524.78;;;8.47;100.00
24031;BME280;12240;51.142;22.486;2023-04-15T03:47:32;98518.34;;;8.49;100.00
24031;BME280;12240;51.142;22.486;2023-04-15T03:50:00;98522.47;;;8.52;100.00
24031;BME280;12240;51.142;22.486;2023-04-15T03:52:28;98522.78;;;8.49;100.00
24031;BME280;12240;51.142;22.486;2023-04-15T03:54:56;98521.97;;;8.48;100.00
24031;BME280;12240;51.142;22.486;2023-04-15T03:57:24;98523.63;;;8.49;100.00
24031;BME280;12240;51.142;22.486;2023-04-15T03:59:52;98522.47;;;8.52;100.00
24031;BME280;12240;51.142;22.486;2023-04-15T04:02:20;98524.00;;;8.54;100.00
24031;BME280;12240;51.142;22.486;2023-04-15T04:04:50;98516.34;;;8.51;100.00
24031;BME280;12240;51.142;22.486;2023-04-15T04:07:18;98520.81;;;8.51;100.00
24031;BME280;12240;51.142;22.486;2023-04-15T04:09:46;98510.22;;;8.51;100.00
24031;BME280;12240;51.142;22.486;2023-04-15T04:12:14;98520.34;;;8.55;100.00
24031;BME280;12240;51.142;22.486;2023-04-15T04:14:42;98515.88;;;8.56;100.00
24031;BME280;12240;51.142;22.486;2023-04-15T04:17:10;98525.44;;;8.49;100.00
24031;BME280;12240;51.142;22.486;2023-04-15T04:19:38;98519.97;;;8.50;100.00
24031;BME280;12240;51.142;22.486;2023-04-15T04:22:06;98521.66;;;8.51;100.00
24031;BME280;12240;51.142;22.486;2023-04-15T04:24:35;98519.81;;;8.52;100.00
24031;BME280;12240;51.142;22.486;2023-04-15T04:27:03;98519.13;;;8.50;100.00
24031;BME280;12240;51.142;22.486;2023-04-15T04:29:31;98519.13;;;8.50;100.00
24031;BME280;12240;51.142;22.486;2023-04-15T04:31:59;98519.13;;;8.50;100.00
24031;BME280;12240;51.142;22.486;2023-04-15T04:34:27;98519.13;;;8.50;100.00
24031;BME280;12240;51.142;22.486;2023-04-15T04:36:56;98520.81;;;8.51;100.00
24031;BME280;12240;51.142;22.486;2023-04-15T04:39:24;98505.56;;;8.53;100.00
24031;BME280;12240;51.142;22.486;2023-04-15T04:41:52;98519.53;;;8.55;100.00
24031;BME280;12240;51.142;22.486;2023-04-15T04:44:20;98523.50;;;8.59;100.00
24031;BME280;12240;51.142;22.486;2023-04-15T04:46:48;98525.31;;;8.58;100.00
24031;BME280;12240;51.142;22.486;2023-04-15T04:49:16;98529.66;;;8.59;100.00
24031;BME280;12240;51.142;22.486;2023-04-15T04:51:45;98525.81;;;8.54;100.00
24031;BME280;12240;51.142;22.486;2023-04-15T04:54:13;98527.47;;;8.55;100.00
24031;BME280;12240;51.142;22.486;2023-04-15T04:56:42;98526.63;;;8.54;100.00
24031;BME280;12240;51.142;22.486;2023-04-15T04:59:10;98524.16;;;8.53;100.00
24031;BME280;12240;51.142;22.486;2023-04-15T05:01:38;98531.09;;;8.54;100.00
24031;BME280;12240;51.142;22.486;2023-04-15T05:04:06;98529.47;;;8.53;100.00
24031;BME280;12240;51.142;22.486;2023-04-15T05:06:34;98531.09;;;8.54;100.00
24031;BME280;12240;51.142;22.486;2023-04-15T05:09:03;98533.59;;;8.55;100.00
24031;BME280;12240;51.142;22.486;2023-04-15T05:11:31;98538.91;;;8.55;100.00
24031;BME280;12240;51.142;22.486;2023-04-15T05:14:00;98539.41;;;8.59;100.00
24031;BME280;12240;51.142;22.486;2023-04-15T05:16:29;98537.41;;;8.53;100.00
24031;BME280;12240;51.142;22.486;2023-04-15T05:18:57;98544.03;;;8.57;100.00
24031;BME280;12240;51.142;22.486;2023-04-15T05:21:25;98546.06;;;8.55;100.00
24031;BME280;12240;51.142;22.486;2023-04-15T05:23:54;98551.19;;;8.56;100.00
24031;BME280;12240;51.142;22.486;2023-04-15T05:26:23;98552.00;;;8.57;100.00
24031;BME280;12240;51.142;22.486;2023-04-15T05:28:51;98552.00;;;8.57;100.00
24031;BME280;12240;51.142;22.486;2023-04-15T05:31:20;98556.81;;;8.53;100.00
24031;BME280;12240;51.142;22.486;2023-04-15T05:33:50;98552.34;;;8.54;100.00
24031;BME280;12240;51.142;22.486;2023-04-15T05:36:19;98562.63;;;8.57;100.00
24031;BME280;12240;51.142;22.486;2023-04-15T05:38:47;98559.81;;;8.58;100.00
24031;BME280;12240;51.142;22.486;2023-04-15T05:41:15;98557.47;;;8.55;100.00
24031;BME280;12240;51.142;22.486;2023-04-15T05:43:46;98550.53;;;8.54;100.00
24031;BME280;12240;51.142;22.486;2023-04-15T05:46:15;98554.00;;;8.55;100.00
24031;BME280;12240;51.142;22.486;2023-04-15T05:48:44;98559.00;;;8.58;100.00
24031;BME280;12240;51.142;22.486;2023-04-15T05:51:12;98557.03;;;8.60;100.00
24031;BME280;12240;51.142;22.486;2023-04-15T05:53:40;98566.78;;;8.59;100.00
24031;BME280;12240;51.142;22.486;2023-04-15T05:56:08;98553.03;;;8.64;100.00
24031;BME280;12240;51.142;22.486;2023-04-15T05:58:36;98557.53;;;8.63;100.00
24031;BME280;12240;51.142;22.486;2023-04-15T06:01:05;98559.69;;;8.68;100.00
24031;BME280;12240;51.142;22.486;2023-04-15T06:03:34;98550.09;;;8.75;100.00
24031;BME280;12240;51.142;22.486;2023-04-15T06:06:02;98556.25;;;8.75;100.00
24031;BME280;12240;51.142;22.486;2023-04-15T06:08:30;98550.13;;;8.83;100.00
24031;BME280;12240;51.142;22.486;2023-04-15T06:10:59;98554.59;;;8.82;100.00
24031;BME280;12240;51.142;22.486;2023-04-15T06:13:27;98554.75;;;8.81;100.00
24031;BME280;12240;51.142;22.486;2023-04-15T06:15:55;98550.34;;;8.97;100.00
24031;BME280;12240;51.142;22.486;2023-04-15T06:18:23;98554.16;;;9.03;100.00
24031;BME280;12240;51.142;22.486;2023-04-15T06:20:52;98559.63;;;9.01;100.00
24031;BME280;12240;51.142;22.486;2023-04-15T06:23:20;98560.81;;;9.07;100.00
24031;BME280;12240;51.142;22.486;2023-04-15T06:25:48;98558.81;;;9.09;100.00
24031;BME280;12240;51.142;22.486;2023-04-15T06:28:16;98565.66;;;9.11;100.00
24031;BME280;12240;51.142;22.486;2023-04-15T06:30:44;98566.78;;;9.09;100.00
24031;BME280;12240;51.142;22.486;2023-04-15T06:33:12;98574.75;;;9.09;100.00
24031;BME280;12240;51.142;22.486;2023-04-15T06:35:40;98574.91;;;9.07;100.00
24031;BME280;12240;51.142;22.486;2023-04-15T06:38:08;98573.63;;;9.11;100.00
24031;BME280;12240;51.142;22.486;2023-04-15T06:40:37;98575.09;;;9.14;100.00
24031;BME280;12240;51.142;22.486;2023-04-15T06:43:05;98580.25;;;9.15;100.00
24031;BME280;12240;51.142;22.486;2023-04-15T06:45:34;98581.41;;;9.21;100.00
24031;BME280;12240;51.142;22.486;2023-04-15T06:48:02;98579.28;;;9.24;100.00
24031;BME280;12240;51.142;22.486;2023-04-15T06:50:30;98581.25;;;9.22;100.00
24031;BME280;12240;51.142;22.486;2023-04-15T06:52:58;98580.91;;;9.25;100.00
24031;BME280;12240;51.142;22.486;2023-04-15T06:55:26;98578.75;;;9.21;100.00
24031;BME280;12240;51.142;22.486;2023-04-15T06:57:54;98587.75;;;9.20;100.00
24031;BME280;12240;51.142;22.486;2023-04-15T07:00:22;98584.75;;;9.31;100.00
24031;BME280;12240;51.142;22.486;2023-04-15T07:02:50;98592.38;;;9.26;100.00
24031;BME280;12240;51.142;22.486;2023-04-15T07:05:18;98593.56;;;9.23;100.00
24031;BME280;12240;51.142;22.486;2023-04-15T07:07:47;98598.53;;;9.26;100.00
24031;BME280;12240;51.142;22.486;2023-04-15T07:10:15;98602.00;;;9.19;100.00
24031;BME280;12240;51.142;22.486;2023-04-15T07:12:43;98596.84;;;9.17;100.00
24031;BME280;12240;51.142;22.486;2023-04-15T07:15:11;98610.63;;;9.13;100.00
24031;BME280;12240;51.142;22.486;2023-04-15T07:17:40;98602.00;;;9.19;100.00
24031;BME280;12240;51.142;22.486;2023-04-15T07:20:10;98615.78;;;9.14;100.00
24031;BME280;12240;51.142;22.486;2023-04-15T07:22:39;98620.06;;;9.15;100.00
24031;BME280;12240;51.142;22.486;2023-04-15T07:25:08;98629.41;;;9.27;100.00
24031;BME280;12240;51.142;22.486;2023-04-15T07:27:36;98622.28;;;9.28;100.00
24031;BME280;12240;51.142;22.486;2023-04-15T07:30:05;98621.63;;;9.34;100.00
24031;BME280;12240;51.142;22.486;2023-04-15T07:32:33;98618.16;;;9.41;100.00
24031;BME280;12240;51.142;22.486;2023-04-15T07:35:01;98630.09;;;9.37;100.00
24031;BME280;12240;51.142;22.486;2023-04-15T07:37:30;98634.25;;;9.40;100.00
24031;BME280;12240;51.142;22.486;2023-04-15T07:39:58;98630.78;;;9.39;100.00
24031;BME280;12240;51.142;22.486;2023-04-15T07:42:26;98629.94;;;9.39;100.00
24031;BME280;12240;51.142;22.486;2023-04-15T07:44:56;98626.28;;;9.48;100.00
24031;BME280;12240;51.142;22.486;2023-04-15T07:47:24;98634.09;;;9.41;100.00
24031;BME280;12240;51.142;22.486;2023-04-15T07:49:52;98647.84;;;9.29;100.00
24031;BME280;12240;51.142;22.486;2023-04-15T07:52:20;98638.09;;;9.46;100.00
24031;BME280;12240;51.142;22.486;2023-04-15T07:54:51;98645.56;;;9.50;100.00
24031;BME280;12240;51.142;22.486;2023-04-15T07:57:20;98651.91;;;9.57;100.00
24031;BME280;12240;51.142;22.486;2023-04-15T07:59:49;98640.94;;;9.52;100.00
24031;BME280;12240;51.142;22.486;2023-04-15T08:02:17;98643.25;;;9.55;100.00
24031;BME280;12240;51.142;22.486;2023-04-15T08:04:45;98648.75;;;9.54;100.00
24031;BME280;12240;51.142;22.486;2023-04-15T08:07:14;98651.56;;;9.60;100.00
24031;BME280;12240;51.142;22.486;2023-04-15T08:09:43;98656.41;;;9.81;100.00
24031;BME280;12240;51.142;22.486;2023-04-15T08:12:11;98653.25;;;9.69;100.00
24031;BME280;12240;51.142;22.486;2023-04-15T08:14:40;98655.25;;;9.83;100.00
24031;BME280;12240;51.142;22.486;2023-04-15T08:17:08;98663.38;;;9.74;100.00
24031;BME280;12240;51.142;22.486;2023-04-15T08:19:37;98660.03;;;9.64;100.00
24031;BME280;12240;51.142;22.486;2023-04-15T08:22:06;98665.88;;;9.67;100.00
24031;BME280;12240;51.142;22.486;2023-04-15T08:24:42;98673.00;;;9.67;100.00
24031;BME280;12240;51.142;22.486;2023-04-15T08:27:10;98674.84;;;9.66;100.00
24031;BME280;12240;51.142;22.486;2023-04-15T08:29:38;98686.44;;;9.57;100.00
24031;BME280;12240;51.142;22.486;2023-04-15T08:32:08;98688.94;;;9.59;100.00
24031;BME280;12240;51.142;22.486;2023-04-15T08:34:36;98690.47;;;9.69;100.00
24031;BME280;12240;51.142;22.486;2023-04-15T08:37:04;98693.47;;;9.66;100.00
24031;BME280;12240;51.142;22.486;2023-04-15T08:49:18;98709.03;;;9.53;100.00
24031;BME280;12240;51.142;22.486;2023-04-15T08:51:49;98707.88;;;9.64;100.00
24031;BME280;12240;51.142;22.486;2023-04-15T08:54:17;98706.38;;;9.53;100.00
24031;BME280;12240;51.142;22.486;2023-04-15T08:56:46;98712.66;;;9.44;100.00
24031;BME280;12240;51.142;22.486;2023-04-15T08:59:15;98711.50;;;9.47;100.00
24031;BME280;12240;51.142;22.486;2023-04-15T09:01:44;98712.50;;;9.46;100.00
24031;BME280;12240;51.142;22.486;2023-04-15T09:04:13;98716.88;;;9.63;100.00
24031;BME280;12240;51.142;22.486;2023-04-15T09:06:41;98712.41;;;9.71;100.00
24031;BME280;12240;51.142;22.486;2023-04-15T09:09:11;98718.53;;;9.64;100.00
24031;BME280;12240;51.142;22.486;2023-04-15T09:11:41;98718.53;;;9.64;100.00
24031;BME280;12240;51.142;22.486;2023-04-15T09:14:10;98722.38;;;9.69;100.00
24031;BME280;12240;51.142;22.486;2023-04-15T09:17:01;98722.69;;;9.66;100.00
24031;BME280;12240;51.142;22.486;2023-04-15T09:19:30;98718.53;;;9.64;100.00
24031;BME280;12240;51.142;22.486;2023-04-15T09:22:01;98715.88;;;9.72;100.00
24031;BME280;12240;51.142;22.486;2023-04-15T09:24:38;98717.91;;;9.78;100.00
24031;BME280;12240;51.142;22.486;2023-04-15T09:27:08;98713.41;;;9.78;100.00
24031;BME280;12240;51.142;22.486;2023-04-15T09:29:36;98707.94;;;9.88;100.00
24031;BME280;12240;51.142;22.486;2023-04-15T09:34:39;98705.94;;;9.98;100.00
24031;BME280;12240;51.142;22.486;2023-04-15T09:37:07;98713.47;;;10.10;100.00
24031;BME280;12240;51.142;22.486;2023-04-15T09:39:51;98712.31;;;10.29;100.00
24031;BME280;12240;51.142;22.486;2023-04-15T09:42:19;98709.31;;;10.24;100.00
24031;BME280;12240;51.142;22.486;2023-04-15T09:44:51;98704.50;;;10.27;100.00
24031;BME280;12240;51.142;22.486;2023-04-15T09:47:33;98705.50;;;10.42;100.00
24031;BME280;12240;51.142;22.486;2023-04-15T09:50:01;98710.41;;;10.94;100.00
24031;BME280;12240;51.142;22.486;2023-04-15T09:52:30;98704.56;;;10.98;100.00
24031;BME280;12240;51.142;22.486;2023-04-15T09:54:59;98705.28;;;11.31;100.00
24031;BME280;12240;51.142;22.486;2023-04-15T09:57:35;98706.84;;;11.87;100.00
24031;BME280;12240;51.142;22.486;2023-04-15T10:00:06;98713.41;;;11.76;100.00
24031;BME280;12240;51.142;22.486;2023-04-15T10:02:40;98714.81;;;11.64;100.00
24031;BME280;12240;51.142;22.486;2023-04-15T10:05:14;98708.97;;;11.91;100.00
24031;BME280;12240;51.142;22.486;2023-04-15T10:07:44;98708.16;;;12.50;100.00
24031;BME280;12240;51.142;22.486;2023-04-15T10:10:14;98709.38;;;12.48;100.00
24031;BME280;12240;51.142;22.486;2023-04-15T10:12:43;98705.28;;;12.74;100.00
24031;BME280;12240;51.142;22.486;2023-04-15T10:15:15;98699.81;;;12.68;100.00
24031;BME280;12240;51.142;22.486;2023-04-15T10:17:47;98692.47;;;12.70;100.00
24031;BME280;12240;51.142;22.486;2023-04-15T10:20:18;98690.91;;;12.75;100.00
24031;BME280;12240;51.142;22.486;2023-04-15T10:22:48;98688.16;;;12.83;100.00
24031;BME280;12240;51.142;22.486;2023-04-15T10:25:16;98686.50;;;12.82;100.00
24031;BME280;12240;51.142;22.486;2023-04-15T10:27:46;98678.47;;;12.68;100.00
24031;BME280;12240;51.142;22.486;2023-04-15T10:30:15;98676.94;;;13.03;100.00
24031;BME280;12240;51.142;22.486;2023-04-15T10:32:44;98674.94;;;13.05;100.00
24031;BME280;12240;51.142;22.486;2023-04-15T10:35:13;98674.25;;;13.46;100.00
24031;BME280;12240;51.142;22.486;2023-04-15T10:37:41;98658.94;;;13.97;100.00
24031;BME280;12240;51.142;22.486;2023-04-15T10:40:29;98660.03;;;14.02;100.00
24031;BME280;12240;51.142;22.486;2023-04-15T10:43:02;98658.06;;;13.69;100.00
24031;BME280;12240;51.142;22.486;2023-04-15T10:45:36;98646.69;;;13.67;100.00
24031;BME280;12240;51.142;22.486;2023-04-15T10:48:06;98645.28;;;13.71;100.00
24031;BME280;12240;51.142;22.486;2023-04-15T10:50:36;98649.44;;;13.73;100.00
24031;BME280;12240;51.142;22.486;2023-04-15T10:53:04;98645.81;;;13.60;100.00
24031;BME280;12240;51.142;22.486;2023-04-15T10:55:33;98648.75;;;13.86;100.00
24031;BME280;12240;51.142;22.486;2023-04-15T10:58:02;98648.34;;;13.68;100.00
24031;BME280;12240;51.142;22.486;2023-04-15T11:00:32;98658.88;;;14.12;100.00
24031;BME280;12240;51.142;22.486;2023-04-15T11:03:07;98656.97;;;14.05;100.00
24031;BME280;12240;51.142;22.486;2023-04-15T11:05:52;98647.53;;;13.88;100.00
24031;BME280;12240;51.142;22.486;2023-04-15T11:12:09;98663.97;;;13.85;100.00
24031;BME280;12240;51.142;22.486;2023-04-15T11:14:16;98665.06;;;13.91;100.00
24031;BME280;12240;51.142;22.486;2023-04-15T11:16:44;98652.91;;;13.53;100.00
24031;BME280;12240;51.142;22.486;2023-04-15T11:19:12;98660.81;;;13.25;100.00
24031;BME280;12240;51.142;22.486;2023-04-15T11:21:40;98664.50;;;13.10;100.00
24031;BME280;12240;51.142;22.486;2023-04-15T11:24:08;98665.53;;;13.09;100.00
24031;BME280;12240;51.142;22.486;2023-04-15T11:26:36;98659.97;;;13.25;100.00
24031;BME280;12240;51.142;22.486;2023-04-15T11:29:05;98666.94;;;13.55;100.00
24031;BME280;12240;51.142;22.486;2023-04-15T11:31:33;98663.00;;;13.72;100.00
24031;BME280;12240;51.142;22.486;2023-04-15T11:34:02;98662.38;;;13.70;100.00
24031;BME280;12240;51.142;22.486;2023-04-15T11:36:30;98663.50;;;14.24;100.00
24031;BME280;12240;51.142;22.486;2023-04-15T11:39:01;98662.53;;;14.46;100.00
24031;BME280;12240;51.142;22.486;2023-04-15T11:41:29;98666.47;;;14.84;100.00
24031;BME280;12240;51.142;22.486;2023-04-15T11:43:57;98664.81;;;14.77;100.00
24031;BME280;12240;51.142;22.486;2023-04-15T11:46:30;98666.31;;;14.58;100.00
24031;BME280;12240;51.142;22.486;2023-04-15T11:48:59;98661.25;;;15.04;100.00
24031;BME280;12240;51.142;22.486;2023-04-15T11:51:32;98658.97;;;15.01;100.00
24031;BME280;12240;51.142;22.486;2023-04-15T11:54:01;98657.47;;;14.92;100.00
24031;BME280;12240;51.142;22.486;2023-04-15T11:56:30;98656.34;;;15.55;100.00
24031;BME280;12240;51.142;22.486;2023-04-15T11:58:58;98660.06;;;15.54;100.00
24031;BME280;12240;51.142;22.486;2023-04-15T12:04:00;98662.59;;;15.28;100.00
24031;BME280;12240;51.142;22.486;2023-04-15T12:06:32;98667.78;;;15.29;100.00
24031;BME280;12240;51.142;22.486;2023-04-15T12:09:09;98661.06;;;15.05;100.00
24031;BME280;12240;51.142;22.486;2023-04-15T12:11:51;98666.50;;;15.18;100.00
24031;BME280;12240;51.142;22.486;2023-04-15T12:14:24;98661.75;;;15.20;100.00
24031;BME280;12240;51.142;22.486;2023-04-15T12:17:01;98670.00;;;14.85;100.00
24031;BME280;12240;51.142;22.486;2023-04-15T12:19:39;98673.81;;;15.03;100.00
24031;BME280;12240;51.142;22.486;2023-04-15T12:22:13;98675.97;;;15.55;100.00
24031;BME280;12240;51.142;22.486;2023-04-15T12:24:43;98663.75;;;15.12;100.00
24031;BME280;12240;51.142;22.486;2023-04-15T12:27:15;98677.94;;;14.99;100.00
24031;BME280;12240;51.142;22.486;2023-04-15T12:29:44;98672.16;;;15.37;100.00
24031;BME280;12240;51.142;22.486;2023-04-15T12:32:16;98667.53;;;15.24;100.00
24031;BME280;12240;51.142;22.486;2023-04-15T12:34:52;98681.06;;;14.48;100.00
24031;BME280;12240;51.142;22.486;2023-04-15T12:37:21;98687.47;;;14.26;100.00
24031;BME280;12240;51.142;22.486;2023-04-15T12:39:50;98691.19;;;14.52;100.00
24031;BME280;12240;51.142;22.486;2023-04-15T12:42:19;98686.47;;;14.54;100.00
24031;BME280;12240;51.142;22.486;2023-04-15T12:44:47;98686.94;;;14.58;100.00
24031;BME280;12240;51.142;22.486;2023-04-15T12:47:15;98666.22;;;14.03;100.00
24031;BME280;12240;51.142;22.486;2023-04-15T12:49:44;98671.56;;;14.03;100.00
24031;BME280;12240;51.142;22.486;2023-04-15T12:52:12;98677.28;;;13.79;100.00
24031;BME280;12240;51.142;22.486;2023-04-15T12:54:40;98676.91;;;14.45;100.00
24031;BME280;12240;51.142;22.486;2023-04-15T12:57:08;98677.16;;;15.05;100.00
24031;BME280;12240;51.142;22.486;2023-04-15T12:59:36;98669.97;;;14.78;100.00
24031;BME280;12240;51.142;22.486;2023-04-15T13:02:05;98673.38;;;15.34;100.00
24031;BME280;12240;51.142;22.486;2023-04-15T13:04:34;98668.44;;;15.38;100.00
24031;BME280;12240;51.142;22.486;2023-04-15T13:07:02;98675.63;;;14.96;100.00
24031;BME280;12240;51.142;22.486;2023-04-15T13:09:30;98670.94;;;14.71;100.00
24031;BME280;12240;51.142;22.486;2023-04-15T13:11:59;98678.28;;;14.62;100.00
24031;BME280;12240;51.142;22.486;2023-04-15T13:14:28;98677.13;;;15.87;100.00
24031;BME280;12240;51.142;22.486;2023-04-15T13:16:56;98673.44;;;16.01;100.00